FW4125 Weather Reports


time (UTC)temp
F
wind
direction
speed
knots
gust
knots
rain 1hr
in
rain 24hr
in
rain mn
in
humidity
%
barometer
mb
20260906230011 98 158 0.0 2.6 0.00 0.04 0.03 28 839.6
20260906224514 98 158 0.9 3.5 0.00 0.04 0.03 28 839.6
20260906223013 98 156 0.0 2.6 0.00 0.04 0.03 28 839.6
20260906221518 99 130 0.0 2.6 0.00 0.04 0.03 28 839.6
20260906220033 99 31 0.9 2.6 0.00 0.04 0.03 28 839.6
20260906214528 100 84 0.9 2.6 0.00 0.04 0.03 28 839.6
20260906213021 100 28 0.9 3.5 0.00 0.04 0.03 26 839.6
20260906211527 100 158 0.9 3.5 0.00 0.04 0.03 27 839.6
20260906210031 100 137 0.0 2.6 0.00 0.04 0.03 28 839.6
20260906204534 101 100 0.9 3.5 0.00 0.04 0.03 26 839.6
20260906203030 101 106 0.9 4.3 0.00 0.04 0.03 29 839.6
20260906201528 101 95 0.9 3.5 0.00 0.04 0.03 28 839.6
20260906200022 100 166 0.9 6.1 0.00 0.04 0.03 30 839.6
20260906194521 99 81 0.9 3.5 0.00 0.04 0.03 31 839.6
20260906193021 98 144 0.0 1.7 0.00 0.04 0.03 34 839.6
20260906191525 98 100 0.0 3.5 0.00 0.04 0.03 33 839.6
20260906190019 98 316 1.7 3.5 0.00 0.04 0.03 32 839.6
20260906184532 97 163 0.0 2.6 0.00 0.04 0.03 35 839.6
20260906183032 96 135 0.9 3.5 0.00 0.04 0.03 35 839.6
20260906181532 95 90 0.9 4.3 0.00 0.04 0.03 36 839.6
20260906180022 94 254 0.9 3.5 0.00 0.04 0.03 39 839.6
20260906174521 92 222 0.0 3.5 0.00 0.04 0.03 41 839.6
20260906173021 91 117 0.9 3.5 0.00 0.04 0.03 44 839.6
20260906171518 88 229 0.0 2.6 0.00 0.04 0.03 50 839.6
20260906170016 86 77 0.0 2.6 0.00 0.04 0.03 53 839.6
20260906164516 85 34 0.0 1.7 0.00 0.04 0.03 56 839.6
20260906163016 84 267 0.0 2.6 0.00 0.04 0.03 58 839.6
20260906161515 82 111 0.0 0.0 0.00 0.04 0.03 59 839.6
20260906160012 81 39 0.0 1.7 0.00 0.04 0.03 62 839.6
20260906154513 80 202 0.0 2.6 0.00 0.04 0.03 65 839.6
20260906153021 80 142 0.0 1.7 0.00 0.04 0.03 68 839.6
20260906151514 79 170 0.0 0.9 0.00 0.04 0.03 68 839.6
20260906150017 79 170 0.0 0.9 0.00 0.04 0.03 69 839.6
20260906144520 78 170 0.0 0.9 0.00 0.04 0.03 69 839.6
20260906143020 78 171 0.0 0.9 0.00 0.04 0.03 69 839.6
20260906141520 77 171 0.0 0.0 0.00 0.04 0.03 68 839.6
20260906140036 77 171 0.0 0.9 0.00 0.04 0.03 68 839.6
20260906134516 77 171 0.0 0.9 0.00 0.04 0.03 68 839.6
20260906133017 77 171 0.0 0.0 0.00 0.04 0.03 67 839.6
20260906131516 76 171 0.0 0.0 0.00 0.04 0.03 67 839.6
20260906130017 76 171 0.0 0.0 0.00 0.04 0.03 67 839.6
20260906124520 76 171 0.0 0.0 0.00 0.04 0.03 66 839.6
20260906123020 76 171 0.0 0.0 0.00 0.04 0.03 66 839.6
20260906121517 76 171 0.0 0.0 0.02 0.04 0.03 66 839.6
20260906120022 76 171 0.0 0.0 0.02 0.04 0.03 65 839.6
20260906114526 76 171 0.0 0.0 0.02 0.04 0.03 65 839.6
20260906113033 77 171 0.0 0.0 0.02 0.04 0.03 65 839.6
20260906111524 77 171 0.0 0.0 0.00 0.02 0.01 66 839.6
20260906110026 77 171 0.0 0.0 0.00 0.02 0.01 65 839.6
20260906104532 77 171 0.0 0.0 0.00 0.02 0.01 65 839.6
20260906103023 77 171 0.0 0.0 0.00 0.02 0.01 65 839.6
20260906101525 77 171 0.0 0.0 0.00 0.02 0.01 65 839.6
20260906100030 77 171 0.0 0.0 0.00 0.02 0.01 65 839.6
20260906094520 77 171 0.0 0.0 0.00 0.02 0.01 65 839.6
20260906093041 78 171 0.0 0.0 0.00 0.02 0.01 65 839.6
20260906091521 78 171 0.0 0.0 0.00 0.02 0.01 65 839.6
20260906090021 78 171 0.0 0.0 0.00 0.02 0.01 65 839.6
20260906084530 78 171 0.0 0.0 0.00 0.02 0.01 64 839.6
20260906083034 78 171 0.0 0.0 0.00 0.02 0.01 64 839.6
20260906081525 78 171 0.0 0.0 0.01 0.02 0.01 64 839.6
20260906080024 78 171 0.0 0.0 0.01 0.02 0.01 64 839.6
20260906074532 79 171 0.0 0.9 0.01 0.02 0.01 64 839.6
20260906073023 79 171 0.0 0.0 0.01 0.03 0.01 63 839.6
20260906071515 79 171 0.0 0.9 0.00 0.02 0.00 63 839.6
20260906070016 79 176 0.0 0.9 0.00 0.02 0.00 63 839.6
20260906064518 79 176 0.0 0.0 0.00 0.02 0.00 63 839.6
20260906063020 79 176 0.0 0.0 0.00 0.02 0.00 62 839.6
20260906061524 79 176 0.0 0.0 0.00 0.02 0.00 61 839.6
20260906060022 80 176 0.0 0.9 0.00 0.02 0.00 60 839.6
20260906054520 80 176 0.0 0.0 0.00 0.02 0.00 58 839.6
20260906053020 81 178 0.0 0.0 0.01 0.02 0.02 56 839.6
20260906051525 82 180 0.0 0.0 0.01 0.02 0.02 53 839.6
20260906050027 84 183 0.0 0.0 0.01 0.02 0.02 51 839.6
20260906044532 86 177 0.0 0.9 0.01 0.02 0.02 49 839.6
20260906043036 86 176 0.0 0.9 0.00 0.01 0.01 49 839.6
20260906041547 87 176 0.0 0.0 0.00 0.01 0.01 48 839.6
20260906040037 87 176 0.0 0.0 0.00 0.01 0.01 47 839.6
20260906034543 87 176 0.0 0.9 0.00 0.01 0.01 46 839.6
20260906033045 88 176 0.0 0.0 0.00 0.01 0.01 45 839.6
20260906031540 88 176 0.0 1.7 0.00 0.01 0.01 45 839.6
20260906030041 88 176 0.0 1.7 0.00 0.01 0.01 44 839.6
20260906024551 89 176 0.0 0.9 0.00 0.01 0.01 43 839.6
20260906023041 90 176 0.0 1.7 0.00 0.01 0.01 43 839.6
20260906021537 90 173 0.0 1.7 0.00 0.01 0.01 41 839.6
20260906020043 91 173 0.0 1.7 0.00 0.01 0.01 40 839.6
20260906014551 92 173 0.0 4.3 0.00 0.01 0.01 39 839.6
20260906013048 93 166 0.0 4.3 0.00 0.01 0.01 37 839.6
20260906011558 94 154 0.9 2.6 0.00 0.01 0.01 34 839.6
20260906010126 95 129 0.0 0.0 0.00 0.01 0.01 31 839.6
20260906004558 96 129 0.0 0.0 0.00 0.01 0.01 29 839.6
20260906003057 97 129 0.0 0.0 0.00 0.01 0.01 29 839.6
20260906001606 98 129 0.0 1.7 0.00 0.01 0.01 29 839.6
20260906000101 98 68 0.0 0.9 0.00 0.01 0.01 28 839.6
20260905234503 98 68 0.0 1.7 0.00 0.01 0.01 28 839.6
20260905233003 98 68 0.0 2.6 0.00 0.01 0.01 27 839.6
20260905231603 98 133 0.0 0.9 0.00 0.01 0.01 27 839.6